createdAt,value
2018-09-10T00:02:13.019Z,99.90
2018-09-10T00:04:40.517Z,99.90
2018-09-10T00:07:08.019Z,99.90
2018-09-10T00:09:35.542Z,99.90
2018-09-10T00:12:03.055Z,99.90
2018-09-10T00:14:30.575Z,99.90
2018-09-10T00:16:58.141Z,99.90
2018-09-10T00:19:25.677Z,99.90
2018-09-10T00:21:53.183Z,99.90
2018-09-10T00:24:20.707Z,99.90
2018-09-10T00:26:48.207Z,99.90
2018-09-10T00:29:15.689Z,99.90
2018-09-10T00:31:43.229Z,99.90
2018-09-10T00:34:10.821Z,99.90
2018-09-10T00:36:38.381Z,99.90
2018-09-10T00:39:10.157Z,99.90
2018-09-10T00:41:37.883Z,99.90
2018-09-10T00:44:05.495Z,99.90
2018-09-10T00:46:33.048Z,99.90
2018-09-10T00:49:00.645Z,99.90
2018-09-10T00:51:28.149Z,99.90
2018-09-10T00:53:55.893Z,99.90
2018-09-10T00:56:23.427Z,99.90
2018-09-10T00:58:51.533Z,99.90
2018-09-10T01:01:19.053Z,99.90
2018-09-10T01:03:46.569Z,99.90
2018-09-10T01:06:14.067Z,99.90
2018-09-10T01:08:41.609Z,99.90
2018-09-10T01:11:09.126Z,99.90
2018-09-10T01:13:36.622Z,99.90
2018-09-10T01:16:04.182Z,99.90
2018-09-10T01:18:31.687Z,99.90
2018-09-10T01:20:59.937Z,99.90
2018-09-10T01:23:27.519Z,99.90
2018-09-10T01:25:55.024Z,99.90
2018-09-10T01:28:22.529Z,99.90
2018-09-10T01:30:50.117Z,99.90
2018-09-10T01:33:23.194Z,99.90
2018-09-10T01:35:50.766Z,99.90
2018-09-10T01:38:18.301Z,99.90
2018-09-10T01:40:45.823Z,99.90
2018-09-10T01:43:13.351Z,99.90
2018-09-10T01:45:40.833Z,99.90
2018-09-10T01:48:08.323Z,99.90
2018-09-10T01:50:35.897Z,99.90
2018-09-10T01:53:03.397Z,99.90
2018-09-10T01:55:30.927Z,99.90
2018-09-10T01:57:58.485Z,99.90
2018-09-10T02:00:26.021Z,99.90
2018-09-10T02:02:53.524Z,99.90
2018-09-10T02:05:21.049Z,99.90
2018-09-10T02:07:48.524Z,99.90
2018-09-10T02:10:16.018Z,99.90
2018-09-10T02:12:43.528Z,99.90
2018-09-10T02:15:11.157Z,99.90
2018-09-10T02:17:38.682Z,99.90
2018-09-10T02:20:06.293Z,99.90
2018-09-10T02:22:33.832Z,99.90
2018-09-10T02:25:01.360Z,99.90
2018-09-10T02:27:29.031Z,99.90
2018-09-10T02:29:56.479Z,99.90
2018-09-10T02:32:23.994Z,99.90
2018-09-10T02:34:51.530Z,99.90
2018-09-10T02:37:19.028Z,99.90
2018-09-10T02:39:46.518Z,99.90
2018-09-10T02:42:14.027Z,99.90
2018-09-10T02:44:41.557Z,99.90
2018-09-10T02:47:09.050Z,99.90
2018-09-10T02:49:36.625Z,99.90
2018-09-10T02:52:04.198Z,99.90
2018-09-10T02:54:31.745Z,99.90
2018-09-10T02:56:59.290Z,99.90
2018-09-10T02:59:26.779Z,99.90
2018-09-10T03:01:54.279Z,99.90
2018-09-10T03:04:21.792Z,99.90
2018-09-10T03:06:49.272Z,99.90
2018-09-10T03:09:16.768Z,99.90
2018-09-10T03:11:44.263Z,99.90
2018-09-10T03:14:11.764Z,99.90
2018-09-10T03:16:39.272Z,99.90
2018-09-10T03:19:06.830Z,99.90
2018-09-10T03:21:34.350Z,99.90
2018-09-10T03:24:01.940Z,99.90
2018-09-10T03:26:29.453Z,99.90
2018-09-10T03:28:56.973Z,99.90
2018-09-10T03:31:24.457Z,99.90
2018-09-10T03:33:52.000Z,99.90
2018-09-10T03:36:19.503Z,99.90
2018-09-10T03:38:47.116Z,99.90
2018-09-10T03:41:14.670Z,99.90
2018-09-10T03:43:42.165Z,99.90
2018-09-10T03:46:09.647Z,99.90
2018-09-10T03:48:37.163Z,99.90
2018-09-10T03:51:04.708Z,99.90
2018-09-10T03:53:32.196Z,99.90
2018-09-10T03:55:59.775Z,99.90
2018-09-10T03:58:27.328Z,99.90
2018-09-10T04:00:54.818Z,99.90
2018-09-10T04:03:22.409Z,99.90
2018-09-10T04:05:49.892Z,99.90
2018-09-10T04:08:17.366Z,99.90
2018-09-10T04:10:44.900Z,99.90
2018-09-10T04:13:12.661Z,99.90
2018-09-10T04:15:40.161Z,99.90
2018-09-10T04:18:07.658Z,99.90
2018-09-10T04:20:35.142Z,99.90
2018-09-10T04:23:02.706Z,99.90
2018-09-10T04:25:30.224Z,99.90
2018-09-10T04:27:57.758Z,99.90
2018-09-10T04:30:25.258Z,99.90
2018-09-10T04:32:52.796Z,99.90
2018-09-10T04:35:20.315Z,99.90
2018-09-10T04:37:47.825Z,99.90
2018-09-10T04:40:15.359Z,99.90
2018-09-10T04:42:42.879Z,99.90
2018-09-10T04:45:10.395Z,99.90
2018-09-10T04:47:37.927Z,99.90
2018-09-10T04:50:05.609Z,99.90
2018-09-10T04:52:33.194Z,99.90
2018-09-10T04:55:00.725Z,99.90
2018-09-10T04:57:28.315Z,99.90
2018-09-10T04:59:55.849Z,99.90
2018-09-10T05:02:23.381Z,99.90
2018-09-10T05:04:50.901Z,99.90
2018-09-10T05:07:18.408Z,99.90
2018-09-10T05:09:45.970Z,99.90
2018-09-10T05:12:13.479Z,99.90
2018-09-10T05:14:40.997Z,99.90
2018-09-10T05:17:08.513Z,99.90
2018-09-10T05:19:36.155Z,99.90
2018-09-10T05:22:03.877Z,99.90
2018-09-10T05:24:31.348Z,99.90
2018-09-10T05:26:58.861Z,99.90
2018-09-10T05:29:26.394Z,99.90
2018-09-10T05:31:53.910Z,99.90
2018-09-10T05:34:21.451Z,99.90
2018-09-10T05:36:49.041Z,99.90
2018-09-10T05:39:16.613Z,99.90
2018-09-10T05:41:44.308Z,99.90
2018-09-10T05:44:11.809Z,99.90
2018-09-10T05:46:39.341Z,99.90
2018-09-10T05:49:06.903Z,99.90
2018-09-10T05:51:34.412Z,99.90
2018-09-10T05:54:01.974Z,99.90
2018-09-10T05:56:29.517Z,99.90
2018-09-10T05:58:57.081Z,99.90
2018-09-10T06:01:24.627Z,99.90
2018-09-10T06:03:52.148Z,99.90
2018-09-10T06:06:19.657Z,99.90
2018-09-10T06:08:47.307Z,99.90
2018-09-10T06:11:14.849Z,99.90
2018-09-10T06:13:42.366Z,99.90
2018-09-10T06:16:09.873Z,99.90
2018-09-10T06:18:37.453Z,99.90
2018-09-10T06:21:04.960Z,99.90
2018-09-10T06:23:32.474Z,99.90
2018-09-10T06:26:00.034Z,99.90
2018-09-10T06:28:27.570Z,99.90
2018-09-10T06:30:55.078Z,99.90
2018-09-10T06:33:22.624Z,99.90
2018-09-10T06:35:50.116Z,99.90
2018-09-10T06:38:17.636Z,99.90
2018-09-10T06:40:45.187Z,99.90
2018-09-10T06:43:12.752Z,99.90
2018-09-10T06:45:40.254Z,99.90
2018-09-10T06:48:07.790Z,99.90
2018-09-10T06:50:35.357Z,99.90
2018-09-10T06:53:03.157Z,99.90
2018-09-10T06:55:30.820Z,99.90
2018-09-10T06:57:58.331Z,99.90
2018-09-10T07:00:25.898Z,99.90
2018-09-10T07:02:53.421Z,99.90
2018-09-10T07:05:20.937Z,99.90
2018-09-10T07:07:48.576Z,99.90
2018-09-10T07:10:16.168Z,99.90
2018-09-10T07:12:43.739Z,99.90
2018-09-10T07:15:11.298Z,99.90
2018-09-10T07:17:38.844Z,99.90
2018-09-10T07:20:07.324Z,99.90
2018-09-10T07:22:35.146Z,99.90
2018-09-10T07:25:02.717Z,99.90
2018-09-10T07:27:30.236Z,99.90
2018-09-10T07:29:57.725Z,99.90
2018-09-10T07:32:25.256Z,99.90
2018-09-10T07:34:52.762Z,99.90
2018-09-10T07:37:20.270Z,99.90
2018-09-10T07:39:47.782Z,99.90
2018-09-10T07:42:15.304Z,99.90
2018-09-10T07:44:42.844Z,99.90
2018-09-10T07:47:10.404Z,99.90
2018-09-10T07:49:37.950Z,99.90
2018-09-10T07:52:05.492Z,99.90
2018-09-10T07:54:33.064Z,99.90
2018-09-10T07:57:00.622Z,99.90
2018-09-10T07:59:28.153Z,99.90
2018-09-10T08:01:55.655Z,99.90
2018-09-10T08:04:23.202Z,99.90
2018-09-10T08:06:50.725Z,99.90
2018-09-10T08:09:18.273Z,99.90
2018-09-10T08:11:45.804Z,99.90
2018-09-10T08:14:13.321Z,99.90
2018-09-10T08:16:41.113Z,99.90
2018-09-10T08:19:08.617Z,99.90
2018-09-10T08:21:36.156Z,99.90
2018-09-10T08:24:03.719Z,99.90
2018-09-10T08:26:31.206Z,99.90
2018-09-10T08:28:58.701Z,99.90
2018-09-10T08:31:26.340Z,99.90
2018-09-10T08:33:54.000Z,99.90
2018-09-10T08:36:21.506Z,99.90
2018-09-10T08:38:49.048Z,99.90
2018-09-10T08:41:16.618Z,99.90
2018-09-10T08:43:44.205Z,99.90
2018-09-10T08:46:11.723Z,99.90
2018-09-10T08:48:39.295Z,99.90
2018-09-10T08:51:06.841Z,99.90
2018-09-10T08:53:34.366Z,99.90
2018-09-10T08:56:02.160Z,99.90
2018-09-10T08:58:29.438Z,99.90
2018-09-10T09:00:56.963Z,99.90
2018-09-10T09:03:24.495Z,99.90
2018-09-10T09:05:52.057Z,99.90
2018-09-10T09:08:19.554Z,99.90
2018-09-10T09:10:47.073Z,99.90
2018-09-10T09:13:14.589Z,99.90
2018-09-10T09:15:42.102Z,99.90
2018-09-10T09:18:09.666Z,99.90
2018-09-10T09:20:37.204Z,99.90
2018-09-10T09:23:04.701Z,99.90
2018-09-10T09:25:32.238Z,99.90
2018-09-10T09:27:59.734Z,99.90
2018-09-10T09:30:27.305Z,99.90
2018-09-10T09:32:54.810Z,99.90
2018-09-10T09:35:27.881Z,99.90
2018-09-10T09:38:01.083Z,99.90
2018-09-10T09:45:45.759Z,99.90
2018-09-10T09:48:13.255Z,99.90
2018-09-10T09:50:40.791Z,99.90
2018-09-10T09:53:08.335Z,99.90
2018-09-10T09:55:35.846Z,99.90
2018-09-10T09:58:03.397Z,99.90
2018-09-10T10:00:36.473Z,99.90
2018-09-10T10:03:09.666Z,99.90
2018-09-10T10:05:37.265Z,99.90
2018-09-10T10:08:05.014Z,99.90
2018-09-10T10:10:32.538Z,99.90
2018-09-10T10:13:00.067Z,99.90
2018-09-10T10:15:27.594Z,99.90
2018-09-10T10:17:55.092Z,99.90
2018-09-10T10:20:22.620Z,99.90
2018-09-10T10:22:50.124Z,99.90
2018-09-10T10:25:17.645Z,99.80
2018-09-10T10:27:45.227Z,99.60
2018-09-10T10:30:12.717Z,99.60
2018-09-10T10:32:40.233Z,99.50
2018-09-10T10:35:07.737Z,99.50
2018-09-10T10:37:35.261Z,99.60
2018-09-10T10:40:02.909Z,99.10
2018-09-10T10:42:30.459Z,99.00
2018-09-10T10:44:57.975Z,99.10
2018-09-10T10:47:25.830Z,98.70
2018-09-10T10:49:53.356Z,98.80
2018-09-10T10:52:20.857Z,98.50
2018-09-10T10:54:48.403Z,98.10
2018-09-10T10:57:15.951Z,98.50
2018-09-10T10:59:43.451Z,98.50
2018-09-10T11:02:10.963Z,98.50
2018-09-10T11:04:38.503Z,98.00
2018-09-10T11:07:06.365Z,97.90
2018-09-10T11:09:33.891Z,97.90
2018-09-10T11:12:01.467Z,97.40
2018-09-10T11:14:28.990Z,97.00
2018-09-10T11:16:56.506Z,96.60
2018-09-10T11:19:24.074Z,96.20
2018-09-10T11:21:51.605Z,96.50
2018-09-10T11:24:19.113Z,96.10
2018-09-10T11:26:46.623Z,95.70
2018-09-10T11:29:14.144Z,95.30
2018-09-10T11:31:41.678Z,95.30
2018-09-10T11:34:09.220Z,95.20
2018-09-10T11:36:36.725Z,95.30
2018-09-10T11:39:05.464Z,94.30
2018-09-10T11:41:33.013Z,93.60
2018-09-10T11:44:00.556Z,92.90
2018-09-10T11:46:28.075Z,92.60
2018-09-10T11:48:55.623Z,92.80
2018-09-10T11:51:23.153Z,92.60
2018-09-10T11:53:50.641Z,92.50
2018-09-10T11:56:18.238Z,92.20
2018-09-10T11:58:45.743Z,92.30
2018-09-10T12:01:13.265Z,92.20
2018-09-10T12:03:40.866Z,91.20
2018-09-10T12:06:08.395Z,90.00
2018-09-10T12:08:35.889Z,90.30
2018-09-10T12:11:03.455Z,90.10
2018-09-10T12:13:31.023Z,88.50
2018-09-10T12:15:58.541Z,86.80
2018-09-10T12:18:26.061Z,85.80
2018-09-10T12:20:53.576Z,81.60
2018-09-10T12:23:21.076Z,84.40
2018-09-10T12:25:48.572Z,84.40
2018-09-10T12:28:16.108Z,82.70
2018-09-10T12:30:43.644Z,84.00
2018-09-10T12:33:11.195Z,82.20
2018-09-10T12:35:38.735Z,81.20
2018-09-10T12:38:06.270Z,80.50
2018-09-10T12:40:33.822Z,78.70
2018-09-10T12:43:01.342Z,78.10
2018-09-10T12:45:28.842Z,78.50
2018-09-10T12:47:56.372Z,78.40
2018-09-10T12:50:23.904Z,78.30
2018-09-10T12:52:51.380Z,77.10
2018-09-10T12:55:18.865Z,77.20
2018-09-10T12:57:46.420Z,75.20
2018-09-10T13:00:13.979Z,75.50
2018-09-10T13:02:41.577Z,73.80
2018-09-10T13:05:09.076Z,70.50
2018-09-10T13:07:36.674Z,71.00
2018-09-10T13:10:04.525Z,71.90
2018-09-10T13:12:32.045Z,70.10
2018-09-10T13:14:59.559Z,71.30
2018-09-10T13:17:27.105Z,71.40
2018-09-10T13:19:54.599Z,70.80
2018-09-10T13:22:22.101Z,70.90
2018-09-10T13:24:49.651Z,71.40
2018-09-10T13:27:17.151Z,73.60
2018-09-10T13:29:44.731Z,74.60
2018-09-10T13:32:12.232Z,75.70
2018-09-10T13:34:39.734Z,76.00
2018-09-10T13:37:07.225Z,74.90
2018-09-10T13:39:34.766Z,74.20
2018-09-10T13:42:02.365Z,73.60
2018-09-10T13:44:29.876Z,71.90
2018-09-10T13:46:57.394Z,71.30
2018-09-10T13:49:24.938Z,70.20
2018-09-10T13:51:52.439Z,69.30
2018-09-10T13:54:20.021Z,67.80
2018-09-10T13:56:47.567Z,65.10
2018-09-10T13:59:15.069Z,68.00
2018-09-10T14:01:42.567Z,67.20
2018-09-10T14:04:10.081Z,65.20
2018-09-10T14:06:37.662Z,66.90
2018-09-10T14:09:06.006Z,65.90
2018-09-10T14:11:33.895Z,66.20
2018-09-10T14:14:01.577Z,66.50
2018-09-10T14:16:29.074Z,66.90
2018-09-10T14:18:56.598Z,65.70
2018-09-10T14:21:24.120Z,66.30
2018-09-10T14:23:51.638Z,68.30
2018-09-10T14:26:19.154Z,67.40
2018-09-10T14:28:46.696Z,65.80
2018-09-10T14:31:14.280Z,64.20
2018-09-10T14:33:41.880Z,64.20
2018-09-10T14:36:09.383Z,64.10
2018-09-10T14:38:36.888Z,62.90
2018-09-10T14:41:04.463Z,62.60
2018-09-10T14:43:32.027Z,62.10
2018-09-10T14:45:59.590Z,61.50
2018-09-10T14:48:27.186Z,60.70
2018-09-10T14:50:54.729Z,61.70
2018-09-10T14:53:22.279Z,62.00
2018-09-10T14:55:49.802Z,62.40
2018-09-10T14:58:17.599Z,62.00
2018-09-10T15:00:45.117Z,61.50
2018-09-10T15:03:12.707Z,61.20
2018-09-10T15:05:40.233Z,61.70
2018-09-10T15:08:07.753Z,63.40
2018-09-10T15:10:35.315Z,63.50
2018-09-10T15:13:02.826Z,63.60
2018-09-10T15:15:30.378Z,63.80
2018-09-10T15:17:57.946Z,64.50
2018-09-10T15:20:25.460Z,64.50
2018-09-10T15:22:52.985Z,64.50
2018-09-10T15:25:20.545Z,64.50
2018-09-10T15:27:48.054Z,64.20
2018-09-10T15:30:15.561Z,63.80
2018-09-10T15:32:43.479Z,63.10
2018-09-10T15:35:10.992Z,63.20
2018-09-10T15:37:38.535Z,63.20
2018-09-10T15:40:06.064Z,63.70
2018-09-10T15:42:33.561Z,63.90
2018-09-10T15:45:01.075Z,63.70
2018-09-10T15:47:28.581Z,62.80
2018-09-10T15:49:56.089Z,62.80
2018-09-10T15:52:23.581Z,62.00
2018-09-10T15:54:51.103Z,59.50
2018-09-10T15:57:18.661Z,59.70
2018-09-10T15:59:46.142Z,59.20
2018-09-10T16:02:13.661Z,60.00
2018-09-10T16:04:41.264Z,60.70
2018-09-10T16:07:09.079Z,61.00
2018-09-10T16:09:36.687Z,60.90
2018-09-10T16:12:04.299Z,59.00
2018-09-10T16:14:31.798Z,59.50
2018-09-10T16:16:59.363Z,59.50
2018-09-10T16:19:26.876Z,60.70
2018-09-10T16:21:54.364Z,61.80
2018-09-10T16:24:21.894Z,62.60
2018-09-10T16:26:49.513Z,61.90
2018-09-10T16:29:16.988Z,61.80
2018-09-10T16:31:44.528Z,61.20
2018-09-10T16:34:12.044Z,61.10
2018-09-10T16:36:39.545Z,62.20
2018-09-10T16:39:08.241Z,63.00
2018-09-10T16:41:35.765Z,63.60
2018-09-10T16:44:03.372Z,64.50
2018-09-10T16:46:30.893Z,65.40
2018-09-10T16:48:58.421Z,65.00
2018-09-10T16:51:25.915Z,65.60
2018-09-10T16:53:53.443Z,65.10
2018-09-10T16:56:20.937Z,66.30
2018-09-10T16:58:48.791Z,67.10
2018-09-10T17:01:16.336Z,68.70
2018-09-10T17:03:43.851Z,68.50
2018-09-10T17:06:11.361Z,69.40
2018-09-10T17:08:38.866Z,69.70
2018-09-10T17:11:06.413Z,70.50
2018-09-10T17:13:33.968Z,71.00
2018-09-10T17:16:01.495Z,71.40
2018-09-10T17:18:29.018Z,72.40
2018-09-10T17:20:56.563Z,73.10
2018-09-10T17:23:24.078Z,73.80
2018-09-10T17:25:53.383Z,73.90
2018-09-10T17:28:21.149Z,74.30
2018-09-10T17:30:49.162Z,74.80
2018-09-10T17:33:16.865Z,76.00
2018-09-10T17:35:44.439Z,76.70
2018-09-10T17:38:12.048Z,78.30
2018-09-10T17:40:39.568Z,76.90
2018-09-10T17:43:07.097Z,77.30
2018-09-10T17:45:34.672Z,77.90
2018-09-10T17:48:02.343Z,78.20
2018-09-10T17:50:29.920Z,79.00
2018-09-10T17:52:57.506Z,79.50
2018-09-10T17:55:25.066Z,80.40
2018-09-10T17:57:52.630Z,80.60
2018-09-10T18:00:20.137Z,81.00
2018-09-10T18:02:47.626Z,81.60
2018-09-10T18:05:15.156Z,81.80
2018-09-10T18:07:42.661Z,82.20
2018-09-10T18:10:10.172Z,82.50
2018-09-10T18:12:37.728Z,83.00
2018-09-10T18:15:05.326Z,83.30
2018-09-10T18:17:32.836Z,84.00
2018-09-10T18:20:00.335Z,84.50
2018-09-10T18:22:27.849Z,84.60
2018-09-10T18:24:55.367Z,84.50
2018-09-10T18:27:22.872Z,85.50
2018-09-10T18:29:50.385Z,85.90
2018-09-10T18:32:17.913Z,86.00
2018-09-10T18:34:45.443Z,86.20
2018-09-10T18:37:12.990Z,86.40
2018-09-10T18:39:40.482Z,86.80
2018-09-10T18:42:08.004Z,87.80
2018-09-10T18:44:35.511Z,88.30
2018-09-10T18:47:03.045Z,88.80
2018-09-10T18:49:30.585Z,89.40
2018-09-10T18:51:58.094Z,90.00
2018-09-10T18:54:25.638Z,90.50
2018-09-10T18:56:53.164Z,90.80
2018-09-10T18:59:20.692Z,91.00
2018-09-10T19:01:48.225Z,91.30
2018-09-10T19:04:15.780Z,91.40
2018-09-10T19:06:43.286Z,91.60
2018-09-10T19:09:11.510Z,91.80
2018-09-10T19:11:39.102Z,92.00
2018-09-10T19:14:06.682Z,92.30
2018-09-10T19:16:34.446Z,92.40
2018-09-10T19:19:01.970Z,92.60
2018-09-10T19:21:29.516Z,92.70
2018-09-10T19:23:57.064Z,92.80
2018-09-10T19:26:24.618Z,92.90
2018-09-10T19:28:52.210Z,93.00
2018-09-10T19:31:19.737Z,93.10
2018-09-10T19:33:47.268Z,93.20
2018-09-10T19:36:14.814Z,93.30
2018-09-10T19:38:42.356Z,93.50
2018-09-10T19:41:09.939Z,93.60
2018-09-10T19:43:37.452Z,93.80
2018-09-10T19:46:04.986Z,94.00
2018-09-10T19:48:32.549Z,94.10
2018-09-10T19:51:00.069Z,94.30
2018-09-10T19:53:27.600Z,94.40
2018-09-10T19:55:55.160Z,94.50
2018-09-10T19:58:22.754Z,94.70
2018-09-10T20:00:50.248Z,94.90
2018-09-10T20:03:17.793Z,95.10
2018-09-10T20:05:45.297Z,95.30
2018-09-10T20:08:12.776Z,95.50
2018-09-10T20:10:40.325Z,95.60
2018-09-10T20:13:07.891Z,95.70
2018-09-10T20:15:35.407Z,96.00
2018-09-10T20:18:02.922Z,96.10
2018-09-10T20:20:30.448Z,96.30
2018-09-10T20:22:57.964Z,96.40
2018-09-10T20:25:25.478Z,96.60
2018-09-10T20:27:53.004Z,96.70
2018-09-10T20:30:20.554Z,96.90
2018-09-10T20:32:48.112Z,97.00
2018-09-10T20:35:15.628Z,97.00
2018-09-10T20:37:43.131Z,97.20
2018-09-10T20:40:10.667Z,97.30
2018-09-10T20:42:38.197Z,97.40
2018-09-10T20:45:06.161Z,97.50
2018-09-10T20:47:33.721Z,97.60
2018-09-10T20:50:01.243Z,97.70
2018-09-10T20:52:28.748Z,97.90
2018-09-10T20:54:56.265Z,98.10
2018-09-10T20:57:23.749Z,98.20
2018-09-10T20:59:51.220Z,98.70
2018-09-10T21:02:18.807Z,98.90
2018-09-10T21:04:46.332Z,98.90
2018-09-10T21:07:13.822Z,99.10
2018-09-10T21:09:41.343Z,99.20
2018-09-10T21:12:08.864Z,99.30
2018-09-10T21:14:36.370Z,99.30
2018-09-10T21:17:03.942Z,99.40
2018-09-10T21:19:31.440Z,99.50
2018-09-10T21:21:59.004Z,99.70
2018-09-10T21:24:26.517Z,99.80
2018-09-10T21:26:54.040Z,99.90
2018-09-10T21:29:21.561Z,99.90
2018-09-10T21:31:49.106Z,99.90
2018-09-10T21:34:16.607Z,99.90
2018-09-10T21:36:44.106Z,99.90
2018-09-10T21:39:11.645Z,99.90
2018-09-10T21:41:39.225Z,99.90
2018-09-10T21:44:07.245Z,99.90
2018-09-10T21:46:34.830Z,99.90
2018-09-10T21:49:02.421Z,99.90
2018-09-10T21:51:29.917Z,99.90
2018-09-10T21:53:57.437Z,99.90
2018-09-10T21:56:24.947Z,99.90
2018-09-10T21:58:52.466Z,99.90
2018-09-10T22:01:19.965Z,99.90
2018-09-10T22:03:47.433Z,99.90
2018-09-10T22:06:14.927Z,99.90
2018-09-10T22:08:42.443Z,99.90
2018-09-10T22:11:09.941Z,99.90
2018-09-10T22:13:37.472Z,99.90
2018-09-10T22:16:05.030Z,99.90
2018-09-10T22:18:32.507Z,99.90
2018-09-10T22:20:59.985Z,99.90
2018-09-10T22:23:27.572Z,99.90
2018-09-10T22:25:55.066Z,99.90
2018-09-10T22:28:22.578Z,99.90
2018-09-10T22:30:50.196Z,99.90
2018-09-10T22:33:17.682Z,99.90
2018-09-10T22:35:45.182Z,99.90
2018-09-10T22:38:12.692Z,99.90
2018-09-10T22:40:40.183Z,99.90
2018-09-10T22:43:07.701Z,99.90
2018-09-10T22:45:35.294Z,99.90
2018-09-10T22:48:02.813Z,99.90
2018-09-10T22:50:30.296Z,99.90
2018-09-10T22:52:57.893Z,99.90
2018-09-10T22:55:25.382Z,99.90
2018-09-10T22:57:52.941Z,99.90
2018-09-10T23:00:20.500Z,99.90
2018-09-10T23:02:48.084Z,99.90
2018-09-10T23:05:15.603Z,99.90
2018-09-10T23:07:43.138Z,99.90
2018-09-10T23:10:10.694Z,99.90
2018-09-10T23:12:38.181Z,99.90
2018-09-10T23:15:05.769Z,99.90
2018-09-10T23:17:33.304Z,99.90
2018-09-10T23:20:00.794Z,99.90
2018-09-10T23:22:28.373Z,99.90
2018-09-10T23:24:55.877Z,99.90
2018-09-10T23:27:23.359Z,99.90
2018-09-10T23:29:50.883Z,99.90
2018-09-10T23:32:18.385Z,99.90
2018-09-10T23:34:45.874Z,99.90
2018-09-10T23:37:13.381Z,99.90
2018-09-10T23:39:40.938Z,99.90
2018-09-10T23:42:08.587Z,99.90
2018-09-10T23:44:36.123Z,99.90
2018-09-10T23:47:03.685Z,99.90
2018-09-10T23:49:31.210Z,99.90
2018-09-10T23:51:58.737Z,99.90
2018-09-10T23:54:31.791Z,99.90
2018-09-10T23:56:59.297Z,99.90
2018-09-10T23:59:26.811Z,99.90
